• Join FlightAware (Why Join?)
  • Login
  • US Flag 
03:51PM EDT


 

Airport Tracker/Info


-or-


 

Live Flight TrackerFlight Track Log ✈ DAL268 ✈ 03-Jun-2013 ✈ KATL - KJFK

Flight Track Log - Related Links

Times and Time Zones

All times are in EDT time to prevent confusion due to time zone crossing. See the DAL268 flight status page for this flight to view local times or setup timezone preferences in your user account.

Time Position Orientation Groundspeed Altitude Reporting Facility
EDT Latitude Longitude Course Direction KTS MPH feet Rate Location/Type
06:40PM 33.6578 -84.4956 340° North 447 514 2,700  Level Atlanta Center
06:41PM 33.6908 -84.5731 297° West 340 391 4,500 2,280 Climbing Atlanta Center
06:42PM 33.8412 -84.1746 320° Northwest  Level FlightAware Approximate
06:42PM 33.7617 -84.5861 351° North 237 273 7,300  Level Atlanta Center
06:43PM 33.9380 -84.2688 339° North  Level FlightAware Approximate
06:43PM 33.8411 -84.5589 16° North 302 348 9,700  Level Atlanta Center
06:44PM 34.0548 -84.3218 339° North  Level FlightAware Approximate
06:45PM 34.1727 -84.3675 340° North  Level FlightAware Approximate
06:45PM 34.0169 -84.4547 26° Northeast 350 403 12,300  Level Atlanta Center
06:46PM 34.1192 -84.4453 North 367 422 15,000 2,220 Climbing Atlanta Center
06:47PM 34.2361 -84.4283 North 396 456 16,800 1,800 Climbing Atlanta Center
06:48PM 34.3489 -84.4186 North 402 463 18,700 1,680 Climbing Atlanta Center
06:49PM 34.4636 -84.4167 North 415 478 20,200 1,500 Climbing Atlanta Center
06:50PM 34.5847 -84.4147 North 421 484 21,800 1,560 Climbing Atlanta Center
06:51PM 34.7058 -84.4103 North 426 490 23,400 1,320 Climbing Atlanta Center
06:52PM 34.8289 -84.4081 North 432 497 24,500 1,020 Climbing Atlanta Center
06:53PM 34.9519 -84.4061 North 438 504 25,500 1,020 Climbing Atlanta Center
06:54PM 35.0792 -84.4042 North 443 510 26,600 1,260 Climbing Atlanta Center
06:55PM 35.2067 -84.3972 North 448 516 28,100 1,740 Climbing Atlanta Center
06:56PM 35.3256 -84.3467 19° North 443 510 30,100 1,200 Climbing Atlanta Center
06:57PM 35.4447 -84.2936 20° North 443 510 30,600 780 Climbing Atlanta Center
06:58PM 35.5533 -84.2456 20° North 449 517 31,700 780 Climbing Atlanta Center
06:59PM 35.6494 -84.1461 40° Northeast 443 510 32,200 540 Climbing Atlanta Center
07:00PM 35.7350 -84.0311 47° Northeast 443 510 32,800 360 Climbing Atlanta Center
07:01PM 35.8225 -83.9133 47° Northeast 448 516 33,000 60 Climbing Atlanta Center
07:02PM 35.9058 -83.7978 48° Northeast 453 521 33,000  Level Atlanta Center
07:03PM 35.9911 -83.6794 48° Northeast 453 521 33,000  Level Atlanta Center
07:04PM 36.0761 -83.5633 48° Northeast 453 521 33,000  Level Atlanta Center
07:05PM 36.1672 -83.4344 49° Northeast 453 521 33,000  Level Atlanta Center
07:06PM 36.2481 -83.3206 49° Northeast 447 514 33,000  Level Atlanta Center
07:07PM 36.3308 -83.2064 48° Northeast 447 514 33,000  Level Atlanta Center
07:09PM 36.4442 -83.0494 48° Northeast 453 521 33,000  Level Indianapolis Center
07:10PM 36.5289 -82.9325 48° Northeast 458 527 33,000  Level Indianapolis Center
07:11PM 36.6244 -82.7953 49° Northeast 452 520 33,000  Level Indianapolis Center
07:12PM 36.7064 -82.6775 49° Northeast 454 522 33,000  Level Indianapolis Center
07:13PM 36.7914 -82.5594 48° Northeast 461 531 33,000  Level Indianapolis Center
07:14PM 36.8753 -82.4400 49° Northeast 461 531 33,000  Level Indianapolis Center
07:15PM 36.9733 -82.3003 49° Northeast 460 529 33,000  Level Indianapolis Center
07:16PM 37.0564 -82.1792 49° Northeast 460 529 33,000  Level Indianapolis Center
07:17PM 37.1394 -82.0614 48° Northeast 454 522 33,000  Level Indianapolis Center
07:18PM 37.2231 -81.9411 49° Northeast 456 525 33,000  Level Indianapolis Center
07:19PM 37.3056 -81.8203 49° Northeast 456 525 33,000  Level Indianapolis Center
07:20PM 37.3892 -81.6981 49° Northeast 459 528 33,000  Level Indianapolis Center
07:21PM 37.4872 -81.5547 49° Northeast 462 532 33,000  Level Indianapolis Center
07:22PM 37.5650 -81.4419 49° Northeast 463 533 33,000  Level Indianapolis Center
07:23PM 37.6458 -81.3236 49° Northeast 459 528 33,000  Level Indianapolis Center
07:24PM 37.7422 -81.1789 50° Northeast 460 529 33,000  Level Indianapolis Center
07:25PM 37.7872 -81.0350 68° East 462 532 33,000  Level Indianapolis Center
07:26PM 37.7967 -80.8753 86° East 466 536 33,000  Level Indianapolis Center
07:27PM 37.8100 -80.6850 85° East 466 536 33,000  Level Indianapolis Center
07:28PM 37.8167 -80.5944 85° East 459 528 33,000  Level Washington Center
07:29PM 37.8253 -80.4319 86° East 459 528 33,000  Level Washington Center
07:30PM 37.8361 -80.2669 85° East 459 528 33,000  Level Washington Center
07:31PM 37.8472 -80.0861 85° East 459 528 33,000  Level Washington Center
07:32PM 37.8575 -79.9186 86° East 459 528 33,000  Level Washington Center
07:33PM 37.8675 -79.7533 86° East 459 528 33,000  Level Washington Center
07:34PM 37.8772 -79.5881 86° East 459 528 33,000  Level Washington Center
07:35PM 37.8869 -79.4228 86° East 464 534 33,000  Level Washington Center
07:36PM 37.8958 -79.2706 86° East 472 543 33,000  Level Washington Center
07:37PM 37.8989 -79.1025 89° East 477 549 33,000  Level Washington Center
07:38PM 37.8594 -78.9453 108° East 462 532 33,000  Level Washington Center
07:39PM 37.8136 -78.7908 111° Southeast 462 532 33,000  Level Washington Center
07:40PM 37.7697 -78.6367 110° East 468 539 33,000  Level Washington Center
07:41PM 37.7197 -78.4664 110° East 475 547 33,000  Level Washington Center
07:42PM 37.6753 -78.3128 110° East 475 547 33,000  Level Washington Center
07:43PM 37.6406 -78.1881 109° East 470 541 33,000  Level Washington Center
07:44PM 37.5875 -78.0239 112° Southeast 470 541 33,000  Level Washington Center
07:45PM 37.5425 -77.8706 110° East 470 541 33,000  Level Washington Center
07:46PM 37.5208 -77.6867 98° East 470 541 33,000  Level Washington Center
07:47PM 37.5092 -77.5186 95° East 475 547 33,000  Level Washington Center
07:48PM 37.4508 -77.3758 117° Southeast 456 525 33,000  Level Washington Center
07:49PM 37.3797 -77.2461 125° Southeast 451 519 33,000  Level Washington Center
07:50PM 37.3381 -77.0833 108° East 467 537 33,000  Level Washington Center
07:51PM 37.3608 -76.9269 80° East 500 575 33,000  Level Washington Center
07:52PM 37.4167 -76.7556 68° East 500 575 33,000  Level Washington Center
07:53PM 37.4619 -76.5886 71° East 512 589 33,000  Level Washington Center
07:54PM 37.5008 -76.4164 74° East 507 583 33,000  Level Washington Center
07:55PM 37.5542 -76.2519 68° East 507 583 33,000 -60 Level Washington Center
07:56PM 37.6631 -76.1375 40° Northeast 494 568 32,900 -60 Descending Washington Center
07:57PM 37.7742 -76.0225 39° Northeast 494 568 32,900  Level Washington Center
07:58PM 37.8808 -75.8969 43° Northeast 505 581 33,000  Climbing Washington Center
07:59PM 38.0083 -75.7736 37° Northeast 518 596 33,000  Level Washington Center
08:00PM 38.1147 -75.6497 42° Northeast 523 602 33,000  Level Washington Center
08:01PM 38.2272 -75.5336 39° Northeast 523 602 33,000 -60 Level Washington Center
08:02PM 38.3314 -75.4303 38° Northeast 523 602 32,900 -60 Descending Washington Center
08:03PM 38.4397 -75.3133 40° Northeast 523 602 32,900  Level Washington Center
08:04PM 38.5519 -75.1961 39° Northeast 518 596 32,900  Level Washington Center
08:05PM 38.6619 -75.0839 39° Northeast 518 596 32,900  Level Washington Center
08:06PM 38.7908 -74.9925 29° Northeast 518 596 32,900  Level Washington Center
08:07PM 38.9217 -74.9167 24° Northeast 512 589 32,900 -1,380 Level Washington Center
08:08PM 39.0525 -74.8378 25° Northeast 512 589 30,200 -2,640 Descending Washington Center
08:09PM 39.1706 -74.7294 35° Northeast 512 589 27,800 -2,100 Descending Washington Center
08:10PM 39.2781 -74.6103 41° Northeast 507 583 26,000 -2,100 Descending Washington Center
08:11PM 39.4356 -74.4319 41° Northeast 478 550 22,400 -2,280 Descending New York Center
08:12PM 39.5208 -74.2992 50° Northeast 472 543 20,200 -2,160 Descending New York Center
08:13PM 39.6086 -74.1581 51° Northeast 465 535 18,100 -1,920 Descending New York Center
08:14PM 39.6892 -74.0350 50° Northeast 447 514 16,400 -1,740 Descending New York Center
08:15PM 39.7611 -73.9197 51° Northeast 430 495 14,700 -1,440 Descending New York Center
08:16PM 39.8239 -73.8250 49° Northeast 400 460 13,500 -1,020 Descending New York Center
08:17PM 39.8869 -73.7278 50° Northeast 369 425 12,700 -1,080 Descending New York Center
08:18PM 39.9453 -73.6436 48° Northeast 333 383 11,400 -960 Descending New York Center
08:19PM 40.0342 -73.5958 22° Northeast 306 352 10,800 -1,140 Descending New York Center
08:20PM 40.1075 -73.5744 13° North 301 346 9,200 -1,680 Descending New York Center
08:21PM 40.1956 -73.5536 10° North 295 339 7,600 -1,500 Descending New York Center
08:22PM 40.2664 -73.5564 358° North 287 330 6,300 -1,440 Descending New York Center
08:23PM 40.3497 -73.5489 North 281 323 4,800 -1,500 Descending New York Center
08:24PM 40.4000 -73.5333 13° North 265 305 3,900 -1,140 Descending New York TRACON
08:25PM 40.4667 -73.5167 11° North 255 293 3,000 -900 Descending New York TRACON